Imperial County Airport Imperial US
ICAO: KIPL
IATA: IPL
Category: Medium
Scheduled Services: No

Elevation: -54 ft
TransAlt. 18000 ft.

Airport Communications:
ASOS:132.175
LOS ANGELES CNTR:128.6
SAN DIEGO RDO:122.5
CTAF/UNICOM:122.7

KIPL Zoom In..

Runways:

(A) RW 08 length 4501 ft width 75 ft
---- / hdg 76

(B) RW 14 length 5308 ft width 100 ft
---- / hdg 139

(C) RW 26 length 4501 ft width 75 ft
---- / hdg 256

(D) RW 32 length 5308 ft width 100 ft
---- / hdg 319

Location; KIPL
Day. 23 / Time. 09.53 Zulu
* Altimeter: 29.77
* Temperature: 32° c. 89.6°f.
* Wind from: 270° Speed 06 kn.
Dewpoint: 14° c.
Visibility: 10 Statute Miles.
Clouds: Clear (automated report).

KIPL 230953Z AUTO 27006KT 10SM CLR 32/14 A2977 RMK AO2 SLP082 T03170139


Wind From 270°
Speed 06 kn.

 
 
jpsmedia.com for Web Design worldairports.se 2018   terms of use